createdAt,value
2017-03-30T06:03:58.867Z,3724
2017-03-30T06:05:21.023Z,4364
2017-03-30T06:06:42.845Z,5344
2017-03-30T06:08:05.015Z,6248
2017-03-30T06:09:27.718Z,6596
2017-03-30T06:10:50.297Z,6884
2017-03-30T06:12:12.458Z,7080
2017-03-30T06:13:34.420Z,6964
2017-03-30T06:14:56.786Z,6704
2017-03-30T06:16:18.308Z,6444
2017-03-30T06:17:39.808Z,6324
2017-03-30T06:19:01.941Z,6268
2017-03-30T06:20:23.742Z,6048
2017-03-30T06:21:46.285Z,5864
2017-03-30T06:23:08.730Z,5608
2017-03-30T06:24:30.257Z,5744
2017-03-30T06:25:53.061Z,4880
2017-03-30T06:27:14.907Z,6160
2017-03-30T06:28:36.821Z,3244
2017-03-30T06:29:58.327Z,2572
2017-03-30T06:31:20.809Z,2056
2017-03-30T06:32:42.058Z,1704
2017-03-30T06:34:04.572Z,1528
2017-03-30T06:35:26.721Z,1456
2017-03-30T06:36:49.163Z,1460
2017-03-30T06:38:10.652Z,1440
2017-03-30T06:39:32.145Z,1308
2017-03-30T06:40:53.322Z,1304
2017-03-30T06:42:15.811Z,1300
2017-03-30T06:43:37.625Z,1340
2017-03-30T06:44:59.454Z,1548
2017-03-30T06:46:21.322Z,1696
2017-03-30T06:47:43.833Z,1752
2017-03-30T06:49:06.091Z,1828
2017-03-30T06:50:28.022Z,1960
2017-03-30T06:51:50.162Z,2100
2017-03-30T06:53:12.603Z,2216
2017-03-30T06:54:34.423Z,2220
2017-03-30T06:55:56.554Z,2216
2017-03-30T06:57:18.722Z,2380
2017-03-30T06:58:40.915Z,2440
2017-03-30T07:00:03.070Z,2508
2017-03-30T07:01:25.031Z,2456
2017-03-30T07:02:47.185Z,2500
2017-03-30T07:04:09.650Z,2364
2017-03-30T07:05:31.783Z,2284
2017-03-30T07:06:53.958Z,2380
2017-03-30T07:08:16.301Z,2452
2017-03-30T07:09:38.686Z,2540
2017-03-30T07:11:00.533Z,2876
2017-03-30T07:12:22.343Z,3272
2017-03-30T07:13:44.164Z,3652
2017-03-30T07:15:05.925Z,3768
2017-03-30T07:16:27.506Z,3808
2017-03-30T07:17:49.804Z,3812
2017-03-30T07:19:11.640Z,3840
2017-03-30T07:20:34.258Z,3772
2017-03-30T07:21:56.384Z,3800
2017-03-30T07:23:18.214Z,3776
2017-03-30T07:24:40.379Z,3852
2017-03-30T07:26:02.802Z,4312
2017-03-30T07:27:24.980Z,4780
2017-03-30T07:28:47.123Z,4676
2017-03-30T07:30:09.600Z,4512
2017-03-30T07:31:31.043Z,4876
2017-03-30T07:32:53.490Z,5644
2017-03-30T07:34:15.027Z,6200
2017-03-30T07:35:37.223Z,5784
2017-03-30T07:36:59.076Z,5092
2017-03-30T07:38:21.517Z,4888
2017-03-30T07:39:43.661Z,4924
2017-03-30T07:41:04.905Z,4952
2017-03-30T07:42:27.686Z,5256
2017-03-30T07:43:49.535Z,5692
2017-03-30T07:45:11.886Z,6296
2017-03-30T07:46:33.785Z,7332
2017-03-30T07:47:57.221Z,8588
2017-03-30T07:49:18.788Z,9476
2017-03-30T07:50:41.036Z,10108
2017-03-30T07:52:03.183Z,10972
2017-03-30T07:53:25.254Z,11732
2017-03-30T07:54:47.415Z,12328
2017-03-30T07:56:09.585Z,12572
2017-03-30T07:57:31.721Z,12164
2017-03-30T07:58:54.495Z,12156
2017-03-30T08:00:16.376Z,12820
2017-03-30T08:01:38.525Z,13108
2017-03-30T08:03:00.371Z,12672
2017-03-30T08:04:22.456Z,12396
2017-03-30T08:05:44.315Z,12608
2017-03-30T08:07:06.475Z,13164
2017-03-30T08:08:28.946Z,12060
2017-03-30T08:09:51.661Z,10572
2017-03-30T08:11:13.986Z,10308
2017-03-30T08:12:36.492Z,10272
2017-03-30T08:13:58.335Z,9752
2017-03-30T08:15:20.733Z,9200
2017-03-30T08:16:42.571Z,9048
2017-03-30T08:18:05.025Z,9376
2017-03-30T08:19:27.217Z,9708
2017-03-30T08:20:50.023Z,10304
2017-03-30T08:22:11.878Z,11236
2017-03-30T08:23:33.151Z,12624
2017-03-30T08:24:54.789Z,13236
2017-03-30T08:26:18.729Z,13640
2017-03-30T08:27:41.280Z,14132
2017-03-30T08:29:02.791Z,13908
2017-03-30T08:30:24.310Z,13348
2017-03-30T08:31:46.763Z,13612
2017-03-30T08:33:08.903Z,14048
2017-03-30T08:34:31.450Z,14348
2017-03-30T08:35:53.614Z,14640
2017-03-30T08:37:15.699Z,14716
2017-03-30T08:38:37.840Z,14240
2017-03-30T08:39:59.668Z,13836
2017-03-30T08:41:22.194Z,13852
2017-03-30T08:42:44.365Z,14208
2017-03-30T08:44:06.320Z,14808
2017-03-30T08:45:28.464Z,15352
2017-03-30T08:46:50.942Z,15216
2017-03-30T08:48:13.424Z,14516
2017-03-30T08:49:35.986Z,14144
2017-03-30T08:50:57.559Z,14388
2017-03-30T08:52:19.158Z,14488
2017-03-30T08:53:41.348Z,14832
2017-03-30T08:55:03.674Z,15252
2017-03-30T08:56:25.565Z,15824
2017-03-30T08:57:47.988Z,16356
2017-03-30T08:59:10.504Z,17088
2017-03-30T09:00:32.333Z,17472
2017-03-30T09:01:54.485Z,17632
2017-03-30T09:03:16.353Z,17632
2017-03-30T09:04:38.770Z,17504
2017-03-30T09:06:00.606Z,17472
2017-03-30T09:07:22.737Z,17472
2017-03-30T09:08:44.554Z,17408
2017-03-30T09:10:06.333Z,17504
2017-03-30T09:11:27.852Z,17792
2017-03-30T09:12:49.378Z,18048
2017-03-30T09:14:10.997Z,18240
2017-03-30T09:15:33.474Z,18528
2017-03-30T09:16:56.069Z,18848
2017-03-30T09:18:18.250Z,18912
2017-03-30T09:19:40.417Z,19104
2017-03-30T09:21:03.033Z,19072
2017-03-30T09:22:24.894Z,19008
2017-03-30T09:23:46.723Z,19072
2017-03-30T09:25:08.904Z,19168
2017-03-30T09:26:31.395Z,19136
2017-03-30T09:27:52.609Z,19072
2017-03-30T09:29:13.506Z,18848
2017-03-30T09:30:35.679Z,18816
2017-03-30T09:31:57.957Z,18368
2017-03-30T09:33:20.508Z,18432
2017-03-30T09:34:42.442Z,18688
2017-03-30T09:36:03.982Z,18944
2017-03-30T09:37:26.322Z,19232
2017-03-30T09:38:48.485Z,19488
2017-03-30T09:40:10.410Z,19488
2017-03-30T09:41:31.943Z,19456
2017-03-30T09:42:53.420Z,19456
2017-03-30T09:44:15.585Z,19616
2017-03-30T09:45:37.766Z,19776
2017-03-30T09:46:59.918Z,19552
2017-03-30T09:48:21.681Z,19104
2017-03-30T09:49:43.826Z,18848
2017-03-30T09:51:05.416Z,18528
2017-03-30T09:52:27.695Z,18176
2017-03-30T09:53:50.417Z,17920
2017-03-30T09:55:12.275Z,17504
2017-03-30T09:56:33.931Z,17024
2017-03-30T09:57:55.846Z,16800
2017-03-30T09:59:18.286Z,17152
2017-03-30T10:00:39.829Z,17984
2017-03-30T10:02:01.452Z,18752
2017-03-30T10:03:23.644Z,19424
2017-03-30T10:04:46.038Z,20128
2017-03-30T10:06:08.293Z,19808
2017-03-30T10:07:30.776Z,19072
2017-03-30T10:08:51.993Z,19072
2017-03-30T10:10:14.848Z,18528
2017-03-30T10:11:36.680Z,17792
2017-03-30T10:12:58.595Z,17408
2017-03-30T10:14:20.496Z,16440
2017-03-30T10:15:42.620Z,15116
2017-03-30T10:17:04.776Z,14512
2017-03-30T10:18:26.960Z,14380
2017-03-30T10:19:49.129Z,13700
2017-03-30T10:21:11.636Z,12856
2017-03-30T10:22:33.804Z,13176
2017-03-30T10:23:55.629Z,13016
2017-03-30T10:25:17.476Z,14024
2017-03-30T10:26:39.555Z,14876
2017-03-30T10:28:01.398Z,14292
2017-03-30T10:29:23.984Z,12672
2017-03-30T10:30:45.514Z,12704
2017-03-30T10:32:07.973Z,12788
2017-03-30T10:33:30.125Z,12432
2017-03-30T10:34:52.285Z,11480
2017-03-30T10:36:14.456Z,11240
2017-03-30T10:37:36.266Z,11264
2017-03-30T10:38:58.433Z,11500
2017-03-30T10:40:20.254Z,11184
2017-03-30T10:41:42.717Z,11120
2017-03-30T10:43:05.497Z,12112
2017-03-30T10:44:27.435Z,13972
2017-03-30T10:45:49.355Z,17184
2017-03-30T10:47:11.205Z,19232
2017-03-30T10:48:33.831Z,19232
2017-03-30T10:49:56.284Z,18304
2017-03-30T10:51:17.806Z,17952
2017-03-30T10:52:39.741Z,17184
2017-03-30T10:54:02.565Z,16056
2017-03-30T10:55:24.421Z,15984
2017-03-30T10:56:47.029Z,16420
2017-03-30T10:58:08.566Z,16456
2017-03-30T10:59:31.029Z,17120
2017-03-30T11:00:52.863Z,16104
2017-03-30T11:02:14.694Z,14912
2017-03-30T11:03:36.568Z,14748
2017-03-30T11:04:58.333Z,14908
2017-03-30T11:06:20.165Z,13712
2017-03-30T11:07:42.344Z,13068
2017-03-30T11:09:04.500Z,13844
2017-03-30T11:10:26.907Z,13472
2017-03-30T11:11:48.456Z,13008
2017-03-30T11:13:10.737Z,13528
2017-03-30T11:14:32.614Z,13024
2017-03-30T11:15:54.456Z,12392
2017-03-30T11:17:16.333Z,12204
2017-03-30T11:18:37.856Z,11632
2017-03-30T11:20:00.013Z,11108
2017-03-30T11:21:22.477Z,10700
2017-03-30T11:22:44.658Z,10448
2017-03-30T11:24:06.814Z,10648
2017-03-30T11:25:28.974Z,10988
2017-03-30T11:26:51.431Z,11660
2017-03-30T11:28:13.365Z,12748
2017-03-30T11:29:35.836Z,13980
2017-03-30T11:30:58.128Z,14308
2017-03-30T11:32:20.422Z,13684
2017-03-30T11:33:42.255Z,13224
2017-03-30T11:35:04.746Z,12952
2017-03-30T11:36:26.905Z,12460
2017-03-30T11:37:49.757Z,11880
2017-03-30T11:39:11.918Z,12724
2017-03-30T11:40:34.074Z,12904
2017-03-30T11:41:56.533Z,12800
2017-03-30T11:43:18.995Z,11640
2017-03-30T11:44:41.507Z,12220
2017-03-30T11:46:02.842Z,14288
2017-03-30T11:47:25.326Z,16380
2017-03-30T11:48:47.424Z,18496
2017-03-30T11:50:09.606Z,18560
2017-03-30T11:51:31.815Z,18112
2017-03-30T11:52:53.034Z,18144
2017-03-30T11:54:15.806Z,17952
2017-03-30T11:55:38.298Z,17728
2017-03-30T11:57:00.586Z,17440
2017-03-30T11:58:22.655Z,16928
2017-03-30T11:59:45.054Z,16704
2017-03-30T12:01:07.326Z,16704
2017-03-30T12:02:29.156Z,16544
2017-03-30T12:03:51.634Z,17408
2017-03-30T12:05:14.088Z,17664
2017-03-30T12:06:36.615Z,17984
2017-03-30T12:07:58.566Z,17440
2017-03-30T12:09:21.053Z,17024
2017-03-30T12:10:43.514Z,16768
2017-03-30T12:12:05.683Z,16160
2017-03-30T12:13:27.526Z,15592
2017-03-30T12:14:49.836Z,15652
2017-03-30T12:16:12.589Z,15292
2017-03-30T12:17:34.419Z,15040
2017-03-30T12:18:55.984Z,14496
2017-03-30T12:20:18.196Z,13592
2017-03-30T12:21:40.985Z,12784
2017-03-30T12:23:02.328Z,13556
2017-03-30T12:24:24.894Z,12908
2017-03-30T12:25:46.752Z,9980
2017-03-30T12:27:09.280Z,9052
2017-03-30T12:28:31.793Z,10156
2017-03-30T12:29:54.348Z,11756
2017-03-30T12:31:16.209Z,12368
2017-03-30T12:33:07.219Z,12112
2017-03-30T12:34:30.224Z,12784
2017-03-30T12:35:52.189Z,13476
2017-03-30T12:37:14.786Z,13552
2017-03-30T12:38:37.538Z,12756
2017-03-30T12:40:00.055Z,13392
2017-03-30T12:41:21.634Z,14036
2017-03-30T12:42:43.786Z,14572
2017-03-30T12:44:06.286Z,15776
2017-03-30T12:45:28.450Z,15744
2017-03-30T12:46:50.015Z,15680
2017-03-30T12:48:12.515Z,14900
2017-03-30T12:49:35.018Z,14912
2017-03-30T12:50:57.191Z,14400
2017-03-30T12:52:19.056Z,15132
2017-03-30T12:53:40.900Z,13620
2017-03-30T12:55:03.076Z,12420
2017-03-30T12:56:24.935Z,12508
2017-03-30T12:57:46.776Z,12220
2017-03-30T12:59:08.944Z,12720
2017-03-30T13:00:31.392Z,12904
2017-03-30T13:01:53.247Z,14472
2017-03-30T13:03:14.771Z,15428
2017-03-30T13:04:36.924Z,15304
2017-03-30T13:05:59.386Z,12864
2017-03-30T13:07:21.380Z,11360
2017-03-30T13:08:43.525Z,12836
2017-03-30T13:10:05.112Z,12756
2017-03-30T13:11:27.375Z,15876
2017-03-30T13:12:49.224Z,17248
2017-03-30T13:14:10.740Z,15832
2017-03-30T13:15:32.886Z,15248
2017-03-30T13:16:55.622Z,15192
2017-03-30T13:18:17.775Z,14908
2017-03-30T13:19:40.003Z,13848
2017-03-30T13:21:02.161Z,13612
2017-03-30T13:22:24.310Z,13316
2017-03-30T13:23:46.174Z,13428
2017-03-30T13:25:08.366Z,13316
2017-03-30T13:26:30.527Z,13468
2017-03-30T13:27:53.258Z,12540
2017-03-30T13:29:15.093Z,11916
2017-03-30T13:30:37.730Z,13144
2017-03-30T13:32:00.225Z,13036
2017-03-30T13:33:23.035Z,13388
2017-03-30T13:34:45.208Z,14912
2017-03-30T13:36:07.060Z,14784
2017-03-30T13:37:29.554Z,14628
2017-03-30T13:38:52.406Z,15160
2017-03-30T13:40:14.906Z,15192
2017-03-30T13:41:36.795Z,15904
2017-03-30T13:42:59.126Z,15628
2017-03-30T13:44:21.208Z,13620
2017-03-30T13:45:43.077Z,13000
2017-03-30T13:47:05.248Z,13920
2017-03-30T13:48:27.397Z,14392
2017-03-30T13:49:49.817Z,14796
2017-03-30T13:51:11.749Z,14080
2017-03-30T13:52:33.308Z,13892
2017-03-30T13:53:55.853Z,13348
2017-03-30T13:55:17.689Z,13584
2017-03-30T13:56:40.186Z,12204
2017-03-30T13:58:01.716Z,11452
2017-03-30T13:59:23.629Z,11336
2017-03-30T14:00:45.566Z,11364
2017-03-30T14:02:07.459Z,12568
2017-03-30T14:03:29.778Z,13656
2017-03-30T14:04:52.245Z,13908
2017-03-30T14:06:14.169Z,13924
2017-03-30T14:07:36.408Z,13180
2017-03-30T14:08:58.679Z,13272
2017-03-30T14:10:20.838Z,12820
2017-03-30T14:11:43.563Z,12628
2017-03-30T14:13:06.082Z,12204
2017-03-30T14:14:28.307Z,11996
2017-03-30T14:15:50.476Z,11916
2017-03-30T14:17:12.567Z,12552
2017-03-30T14:18:34.783Z,12488
2017-03-30T14:19:55.994Z,12104
2017-03-30T14:21:18.558Z,11104
2017-03-30T14:22:41.409Z,10976
2017-03-30T14:24:03.860Z,10620
2017-03-30T14:25:25.745Z,9984
2017-03-30T14:26:48.226Z,10248
2017-03-30T14:28:10.420Z,10516
2017-03-30T14:29:32.880Z,10664
2017-03-30T14:30:55.064Z,10500
2017-03-30T14:32:17.569Z,10284
2017-03-30T14:33:40.325Z,10144
2017-03-30T14:35:02.829Z,9792
2017-03-30T14:36:25.454Z,10332
2017-03-30T14:37:47.727Z,10844
2017-03-30T14:39:10.186Z,11012
2017-03-30T14:40:32.356Z,11184
2017-03-30T14:41:54.524Z,11800
2017-03-30T14:43:16.697Z,11188
2017-03-30T14:44:38.845Z,11032
2017-03-30T14:46:01.320Z,10820
2017-03-30T14:47:23.238Z,10308
2017-03-30T14:48:45.148Z,10240
2017-03-30T14:50:07.975Z,10392
2017-03-30T14:51:30.455Z,10040
2017-03-30T14:52:53.002Z,9504
2017-03-30T14:54:14.272Z,9172
2017-03-30T14:55:37.014Z,8940
2017-03-30T14:56:59.185Z,8680
2017-03-30T14:58:21.651Z,8604
2017-03-30T14:59:44.181Z,8564
2017-03-30T15:01:06.903Z,8704
2017-03-30T15:02:29.404Z,8672
2017-03-30T15:03:51.407Z,8820
2017-03-30T15:05:13.896Z,8852
2017-03-30T15:06:36.776Z,8448
2017-03-30T15:07:58.965Z,8216
2017-03-30T15:09:21.448Z,8308
2017-03-30T15:10:43.939Z,8172
2017-03-30T15:12:06.853Z,7972
2017-03-30T15:13:29.024Z,8056
2017-03-30T15:14:51.206Z,8104
2017-03-30T15:16:13.732Z,7976
2017-03-30T15:18:07.815Z,8036
2017-03-30T15:19:30.005Z,8120
2017-03-30T15:20:51.831Z,7988
2017-03-30T15:22:13.388Z,7996
2017-03-30T15:23:35.825Z,8332
2017-03-30T15:24:58.312Z,8488
2017-03-30T15:26:20.785Z,8472
2017-03-30T15:27:42.644Z,8404
2017-03-30T15:29:05.312Z,8336
2017-03-30T15:30:27.526Z,8292
2017-03-30T15:31:49.707Z,8268
2017-03-30T15:33:11.900Z,8264
2017-03-30T15:34:34.368Z,8220
2017-03-30T15:35:56.878Z,8160
2017-03-30T15:37:19.055Z,8084
2017-03-30T15:38:40.927Z,8016
2017-03-30T15:40:03.655Z,7980
2017-03-30T15:41:25.518Z,7960
2017-03-30T15:42:48.006Z,7992
2017-03-30T15:44:10.486Z,8036
2017-03-30T15:45:33.298Z,8064
2017-03-30T15:46:55.466Z,8096
2017-03-30T15:48:16.828Z,8124
2017-03-30T15:49:38.816Z,8148
2017-03-30T15:51:01.373Z,8168
2017-03-30T15:52:23.866Z,8188
2017-03-30T15:53:46.124Z,8124
2017-03-30T15:55:08.396Z,7996
2017-03-30T15:56:30.884Z,7884
2017-03-30T15:57:52.884Z,7700
2017-03-30T15:59:14.783Z,7676
2017-03-30T16:00:36.968Z,7372
2017-03-30T16:01:59.455Z,7120
2017-03-30T16:03:21.687Z,7012
2017-03-30T16:04:43.578Z,6912
2017-03-30T16:06:05.434Z,6736
2017-03-30T16:07:27.998Z,6684
2017-03-30T16:08:49.908Z,6668
2017-03-30T16:10:12.409Z,6604
2017-03-30T16:11:34.282Z,6448
2017-03-30T16:12:56.381Z,6364
2017-03-30T16:14:18.917Z,6320
2017-03-30T16:15:41.197Z,6336
2017-03-30T16:17:03.667Z,6348
2017-03-30T16:18:26.148Z,6344
2017-03-30T16:19:47.992Z,6344
2017-03-30T16:21:10.170Z,6328
2017-03-30T16:22:32.343Z,6168
2017-03-30T16:23:55.228Z,5972
2017-03-30T16:25:17.413Z,5740
2017-03-30T16:26:39.565Z,5532
2017-03-30T16:28:02.059Z,5352
2017-03-30T16:29:24.642Z,5188
2017-03-30T16:30:46.871Z,4992
2017-03-30T16:32:09.141Z,4916
2017-03-30T16:33:31.325Z,4728
2017-03-30T16:34:53.816Z,4532
2017-03-30T16:36:16.286Z,4360
2017-03-30T16:37:38.483Z,4196
2017-03-30T16:39:00.356Z,4016
2017-03-30T16:40:23.094Z,3856
2017-03-30T16:41:45.281Z,3752
2017-03-30T16:43:07.475Z,3828
2017-03-30T16:44:29.665Z,3960
2017-03-30T16:45:52.569Z,3960
2017-03-30T16:47:15.042Z,3756
2017-03-30T16:48:36.582Z,3560
2017-03-30T16:49:58.134Z,3412
2017-03-30T16:51:20.555Z,3140
2017-03-30T16:52:42.706Z,2880
2017-03-30T16:54:04.759Z,2752
2017-03-30T16:55:26.923Z,2648
2017-03-30T16:56:49.776Z,2528
2017-03-30T16:58:11.747Z,2448
2017-03-30T16:59:33.805Z,2336
2017-03-30T17:00:56.384Z,2224
2017-03-30T17:02:19.263Z,2128
2017-03-30T17:03:41.435Z,2040
2017-03-30T17:05:03.623Z,1956
2017-03-30T17:06:26.145Z,1880
2017-03-30T17:07:48.604Z,1800
2017-03-30T17:09:10.154Z,1744
2017-03-30T17:10:32.505Z,1704
2017-03-30T17:11:55.018Z,1620
2017-03-30T17:13:17.909Z,1500
2017-03-30T17:14:40.395Z,1404
2017-03-30T17:16:02.895Z,1340
2017-03-30T17:17:25.113Z,1284
2017-03-30T17:18:47.215Z,1236
2017-03-30T17:20:09.366Z,1164
2017-03-30T17:21:30.911Z,1120
2017-03-30T17:22:53.064Z,1076
2017-03-30T17:24:15.863Z,1040
2017-03-30T17:25:37.714Z,1004
2017-03-30T17:27:00.238Z,964
2017-03-30T17:28:22.417Z,924
2017-03-30T17:29:44.844Z,880
2017-03-30T17:31:07.325Z,836
2017-03-30T17:32:29.894Z,796
2017-03-30T17:33:52.410Z,752
2017-03-30T17:35:15.336Z,708
2017-03-30T17:36:37.832Z,660
2017-03-30T17:38:00.414Z,612
2017-03-30T17:39:22.845Z,568
2017-03-30T17:40:45.380Z,524
2017-03-30T17:42:07.876Z,488
2017-03-30T17:43:30.380Z,444
2017-03-30T17:44:52.557Z,408
2017-03-30T17:46:14.986Z,372
2017-03-30T17:47:37.487Z,336
2017-03-30T17:48:59.970Z,308
2017-03-30T17:50:21.967Z,272
2017-03-30T17:51:44.894Z,244
2017-03-30T17:53:07.097Z,216
2017-03-30T17:54:29.286Z,192
2017-03-30T17:55:51.490Z,172
2017-03-30T17:57:13.355Z,152
2017-03-30T17:58:35.847Z,132
2017-03-30T17:59:58.398Z,116
2017-03-30T18:01:20.931Z,100
2017-03-30T18:02:43.106Z,88
2017-03-30T18:04:05.403Z,72
2017-03-30T18:05:27.294Z,60
2017-03-30T18:06:49.782Z,52
2017-03-30T18:08:12.551Z,44
2017-03-30T18:09:35.262Z,36
2017-03-30T18:10:57.467Z,28
2017-03-30T18:12:19.983Z,24
2017-03-30T18:13:42.484Z,20
2017-03-30T18:15:05.118Z,16
2017-03-30T18:16:27.742Z,12
2017-03-30T18:17:49.942Z,44
2017-03-30T18:19:12.674Z,40
2017-03-30T18:20:34.843Z,36
2017-03-30T18:21:57.350Z,36
2017-03-30T18:23:19.843Z,36
2017-03-30T18:24:42.285Z,32
2017-03-30T18:26:04.458Z,32
2017-03-30T18:27:26.968Z,32
2017-03-30T18:28:49.146Z,28
2017-03-30T18:30:11.292Z,32
2017-03-30T18:31:33.517Z,32
2017-03-30T18:32:55.712Z,0
2017-03-30T18:34:18.171Z,0
2017-03-30T18:35:40.417Z,0
2017-03-30T18:37:02.965Z,0
2017-03-30T18:38:25.461Z,0
2017-03-30T18:39:47.999Z,0
2017-03-30T18:41:10.804Z,0
2017-03-30T18:42:33.612Z,0
2017-03-30T18:43:55.789Z,0
2017-03-30T18:45:17.647Z,0
2017-03-30T18:46:40.146Z,0
2017-03-30T18:48:02.330Z,0
2017-03-30T18:49:24.908Z,0
2017-03-30T18:50:47.114Z,0
2017-03-30T18:52:09.605Z,0
2017-03-30T18:53:31.804Z,0
2017-03-30T18:54:54.304Z,0
2017-03-30T18:56:16.804Z,0
2017-03-30T18:57:39.336Z,0
2017-03-30T18:59:01.790Z,0
2017-03-30T19:00:24.306Z,0
2017-03-30T19:01:46.492Z,0
2017-03-30T19:03:08.996Z,0
2017-03-30T19:04:31.220Z,0
2017-03-30T19:05:52.765Z,0
2017-03-30T19:07:14.966Z,0
2017-03-30T19:08:37.718Z,0
2017-03-30T19:10:00.415Z,0
2017-03-30T19:11:22.684Z,0
2017-03-30T19:12:44.256Z,0
2017-03-30T19:14:06.834Z,0
2017-03-30T19:15:28.783Z,0
2017-03-30T19:16:50.995Z,0
2017-03-30T19:18:13.569Z,0
2017-03-30T19:19:36.086Z,0
2017-03-30T19:20:58.268Z,0
2017-03-30T19:22:20.758Z,0
2017-03-30T19:23:42.627Z,0
2017-03-30T19:25:05.158Z,0
2017-03-30T19:26:27.370Z,0
2017-03-30T19:27:49.967Z,0
2017-03-30T19:29:11.848Z,0
2017-03-30T19:30:34.087Z,0
2017-03-30T19:31:56.295Z,0
2017-03-30T19:33:18.817Z,0
2017-03-30T19:34:41.508Z,0
2017-03-30T19:36:04.275Z,0
2017-03-30T19:37:26.484Z,0
2017-03-30T19:38:48.785Z,0
2017-03-30T19:40:10.967Z,0
2017-03-30T19:41:33.426Z,0
2017-03-30T19:42:56.047Z,0
2017-03-30T19:44:17.874Z,0
2017-03-30T19:45:40.478Z,0
2017-03-30T19:47:02.956Z,0
2017-03-30T19:48:25.167Z,0
2017-03-30T19:49:47.836Z,0
2017-03-30T19:51:10.017Z,0
2017-03-30T19:52:32.272Z,0
2017-03-30T19:53:54.170Z,0
2017-03-30T19:55:16.032Z,0
2017-03-30T19:56:38.526Z,0
2017-03-30T19:58:00.732Z,0
2017-03-30T19:59:23.066Z,0
2017-03-30T20:00:45.232Z,0
2017-03-30T20:02:06.855Z,0
2017-03-30T20:03:29.398Z,0
2017-03-30T20:04:51.576Z,0
2017-03-30T20:06:13.732Z,0
2017-03-30T20:07:36.217Z,0
2017-03-30T20:08:58.696Z,0
2017-03-30T20:10:20.677Z,0
2017-03-30T20:11:42.684Z,0
2017-03-30T20:13:04.850Z,0
2017-03-30T20:14:27.034Z,0
2017-03-30T20:15:49.306Z,0
2017-03-30T20:17:11.778Z,0
2017-03-30T20:18:33.659Z,0
2017-03-30T20:19:56.056Z,0
2017-03-30T20:21:17.908Z,0
2017-03-30T20:22:40.399Z,0
2017-03-30T20:24:02.874Z,0
2017-03-30T20:25:25.334Z,0
2017-03-30T20:26:47.829Z,0
2017-03-30T20:28:10.006Z,0
2017-03-30T20:29:31.880Z,0
2017-03-30T20:30:54.403Z,0
2017-03-30T20:32:16.946Z,0
2017-03-30T20:33:39.186Z,0
2017-03-30T20:35:01.768Z,0
2017-03-30T20:36:24.567Z,0
2017-03-30T20:37:46.405Z,0
2017-03-30T20:39:07.957Z,0
2017-03-30T20:40:30.116Z,0
2017-03-30T20:41:52.527Z,0
2017-03-30T20:43:15.014Z,0
2017-03-30T20:44:37.237Z,0
2017-03-30T20:45:59.444Z,0
2017-03-30T20:47:22.124Z,0
2017-03-30T20:48:43.996Z,0
2017-03-30T20:50:05.547Z,0
2017-03-30T20:51:27.729Z,0
2017-03-30T20:52:50.404Z,0
2017-03-30T20:54:12.290Z,0
2017-03-30T20:55:34.803Z,0
2017-03-30T20:56:56.957Z,0
2017-03-30T20:58:19.738Z,0
2017-03-30T20:59:41.914Z,0
2017-03-30T21:01:04.392Z,0
2017-03-30T21:02:26.298Z,0
2017-03-30T21:03:48.465Z,0
2017-03-30T21:05:10.626Z,0
2017-03-30T21:06:32.804Z,0
2017-03-30T21:07:54.944Z,0
2017-03-30T21:09:17.692Z,0
2017-03-30T21:10:39.843Z,0
2017-03-30T21:12:02.013Z,0
2017-03-30T21:13:24.341Z,0
2017-03-30T21:14:46.843Z,0
2017-03-30T21:16:08.717Z,0
2017-03-30T21:17:31.273Z,0
2017-03-30T21:18:53.146Z,0
2017-03-30T21:20:15.539Z,0
2017-03-30T21:21:37.725Z,0
2017-03-30T21:22:59.889Z,0
2017-03-30T21:24:22.183Z,0
2017-03-30T21:25:43.943Z,0
2017-03-30T21:27:05.765Z,0
2017-03-30T21:28:27.307Z,0
2017-03-30T21:29:49.606Z,0
2017-03-30T21:31:12.064Z,0
2017-03-30T21:32:33.935Z,0
2017-03-30T21:33:56.466Z,0
2017-03-30T21:35:17.977Z,0
2017-03-30T21:36:40.446Z,0
2017-03-30T21:38:02.315Z,0
2017-03-30T21:39:24.157Z,0
2017-03-30T21:40:46.316Z,0
2017-03-30T21:42:08.457Z,0
2017-03-30T21:43:30.597Z,0
2017-03-30T21:44:52.757Z,0
2017-03-30T21:46:14.919Z,0
2017-03-30T21:47:37.899Z,0
2017-03-30T21:49:00.367Z,0
2017-03-30T21:50:22.527Z,0
2017-03-30T21:51:44.673Z,0
2017-03-30T21:53:07.076Z,0
2017-03-30T21:54:29.535Z,0
2017-03-30T21:55:51.361Z,0
2017-03-30T21:57:12.876Z,0
2017-03-30T21:58:35.296Z,0
2017-03-30T21:59:57.523Z,0
2017-03-30T22:01:20.009Z,0
2017-03-30T22:02:42.448Z,0
2017-03-30T22:04:04.657Z,0
2017-03-30T22:05:26.500Z,0
2017-03-30T22:06:48.355Z,0
2017-03-30T22:08:09.883Z,0
2017-03-30T22:09:31.949Z,0
2017-03-30T22:10:53.766Z,0
2017-03-30T22:12:16.293Z,0
2017-03-30T22:13:38.439Z,0
2017-03-30T22:15:00.843Z,0
2017-03-30T22:16:54.745Z,0
2017-03-30T22:18:16.253Z,0
2017-03-30T22:19:38.394Z,0
2017-03-30T22:21:00.510Z,0
2017-03-30T22:22:22.656Z,0
2017-03-30T22:23:44.196Z,0
2017-03-30T22:25:06.036Z,0
2017-03-30T22:26:27.799Z,0
2017-03-30T22:27:49.756Z,0
2017-03-30T22:29:11.584Z,0
2017-03-30T22:30:33.405Z,0
2017-03-30T22:31:55.857Z,0
2017-03-30T22:33:17.681Z,0
2017-03-30T22:34:39.196Z,0
2017-03-30T22:36:00.714Z,0
2017-03-30T22:37:22.523Z,0
2017-03-30T22:38:44.662Z,0
2017-03-30T22:40:07.148Z,0
2017-03-30T22:41:28.984Z,0
2017-03-30T22:42:51.708Z,0
2017-03-30T22:44:13.529Z,0
2017-03-30T22:45:35.048Z,0
2017-03-30T22:46:56.917Z,0
2017-03-30T22:48:19.361Z,0
2017-03-30T22:49:41.188Z,0
2017-03-30T22:51:03.394Z,0
2017-03-30T22:52:24.585Z,0
2017-03-30T22:53:47.028Z,0
2017-03-30T22:55:08.939Z,0
2017-03-30T22:56:31.463Z,0
2017-03-30T22:57:53.345Z,0
2017-03-30T22:59:15.751Z,0
2017-03-30T23:00:37.615Z,0
2017-03-30T23:01:59.444Z,0
2017-03-30T23:03:21.068Z,0
2017-03-30T23:04:43.475Z,0
2017-03-30T23:06:04.988Z,0
2017-03-30T23:07:26.203Z,0
2017-03-30T23:08:47.412Z,0
2017-03-30T23:10:08.897Z,0
2017-03-30T23:11:30.708Z,0
2017-03-30T23:12:52.831Z,0
2017-03-30T23:14:15.000Z,0
2017-03-30T23:15:37.070Z,0
2017-03-30T23:16:59.357Z,0
2017-03-30T23:18:20.917Z,0
2017-03-30T23:19:42.754Z,0
2017-03-30T23:21:04.549Z,0
2017-03-30T23:22:25.814Z,0
2017-03-30T23:23:47.701Z,0
2017-03-30T23:25:09.617Z,0
2017-03-30T23:26:31.824Z,0
2017-03-30T23:27:53.948Z,0
2017-03-30T23:29:15.536Z,0
2017-03-30T23:30:37.448Z,0
2017-03-30T23:31:58.909Z,0
2017-03-30T23:33:20.740Z,0
2017-03-30T23:34:42.896Z,0
2017-03-30T23:36:04.127Z,0
2017-03-30T23:37:26.197Z,0
2017-03-30T23:38:47.425Z,0
2017-03-30T23:40:09.878Z,0
2017-03-30T23:41:31.707Z,0
2017-03-30T23:42:53.832Z,0
2017-03-30T23:44:15.972Z,0
2017-03-30T23:45:37.795Z,0
2017-03-30T23:46:59.615Z,0
2017-03-30T23:48:21.800Z,0
2017-03-30T23:49:43.939Z,0
2017-03-30T23:51:05.757Z,0
2017-03-30T23:52:27.574Z,0
2017-03-30T23:53:49.433Z,0
2017-03-30T23:55:11.379Z,0
2017-03-30T23:56:33.536Z,0
2017-03-30T23:57:55.045Z,0
2017-03-30T23:59:16.843Z,0
